createdAt,value
2023-04-10T00:01:07.809Z,37.73
2023-04-10T00:03:34.504Z,37.37
2023-04-10T00:06:01.173Z,35.63
2023-04-10T00:08:27.825Z,35.77
2023-04-10T00:10:54.578Z,36.03
2023-04-10T00:13:21.217Z,33.13
2023-04-10T00:15:48.284Z,32.47
2023-04-10T00:18:14.948Z,34.10
2023-04-10T00:20:41.914Z,32.13
2023-04-10T00:23:08.515Z,30.20
2023-04-10T00:25:35.325Z,29.80
2023-04-10T00:28:01.912Z,29.57
2023-04-10T00:30:28.541Z,28.60
2023-04-10T00:32:55.298Z,29.30
2023-04-10T00:35:22.171Z,30.07
2023-04-10T00:37:50.230Z,29.57
2023-04-10T00:40:16.956Z,28.83
2023-04-10T00:42:43.948Z,29.60
2023-04-10T00:45:11.613Z,29.43
2023-04-10T00:47:38.382Z,29.63
2023-04-10T00:50:06.478Z,30.70
2023-04-10T00:52:33.450Z,28.90
2023-04-10T00:55:00.126Z,30.60
2023-04-10T00:57:27.110Z,29.90
2023-04-10T00:59:53.972Z,31.93
2023-04-10T01:02:20.882Z,29.90
2023-04-10T01:04:51.195Z,30.43
2023-04-10T01:07:43.947Z,30.47
2023-04-10T01:10:47.843Z,32.23
2023-04-10T01:13:33.610Z,31.40
2023-04-10T01:16:16.732Z,33.23
2023-04-10T01:18:56.477Z,32.23
2023-04-10T01:21:24.135Z,33.23
2023-04-10T01:24:00.552Z,33.53
2023-04-10T01:26:45.356Z,34.80
2023-04-10T01:29:19.681Z,32.50
2023-04-10T01:31:57.673Z,34.90
2023-04-10T01:34:28.048Z,34.10
2023-04-10T01:37:04.790Z,34.20
2023-04-10T01:39:36.250Z,35.10
2023-04-10T01:42:05.636Z,33.77
2023-04-10T01:44:34.378Z,35.33
2023-04-10T01:47:02.798Z,35.17
2023-04-10T01:49:31.732Z,33.70
2023-04-10T01:52:00.577Z,34.30
2023-04-10T01:54:33.616Z,33.60
2023-04-10T01:57:02.133Z,33.03
2023-04-10T01:59:29.428Z,33.67
2023-04-10T02:01:57.724Z,33.27
2023-04-10T02:04:26.480Z,32.70
2023-04-10T02:07:17.655Z,31.80
2023-04-10T02:10:02.927Z,33.23
2023-04-10T02:12:43.875Z,31.67
2023-04-10T02:15:11.832Z,30.30
2023-04-10T02:17:39.443Z,32.50
2023-04-10T02:20:07.792Z,32.93
2023-04-10T02:22:35.015Z,32.10
2023-04-10T02:25:04.870Z,31.27
2023-04-10T02:27:34.226Z,32.53
2023-04-10T02:30:03.443Z,32.43
2023-04-10T02:32:31.190Z,32.53
2023-04-10T02:34:57.820Z,33.43
2023-04-10T02:37:24.592Z,33.67
2023-04-10T02:39:51.551Z,32.57
2023-04-10T02:42:18.264Z,30.03
2023-04-10T02:44:44.877Z,33.73
2023-04-10T02:47:11.417Z,34.90
2023-04-10T02:49:38.128Z,32.60
2023-04-10T02:52:04.905Z,33.53
2023-04-10T02:54:31.635Z,33.50
2023-04-10T02:56:58.756Z,34.07
2023-04-10T02:59:25.620Z,33.73
2023-04-10T03:01:52.488Z,34.47
2023-04-10T03:04:19.573Z,34.43
2023-04-10T03:06:46.519Z,35.63
2023-04-10T03:09:13.170Z,34.00
2023-04-10T03:11:39.740Z,36.53
2023-04-10T03:14:06.469Z,35.03
2023-04-10T03:16:33.170Z,36.03
2023-04-10T03:19:00.161Z,36.27
2023-04-10T03:21:27.359Z,37.83
2023-04-10T03:23:54.394Z,35.90
2023-04-10T03:26:21.365Z,36.00
2023-04-10T03:28:48.384Z,37.37
2023-04-10T03:31:17.408Z,37.47
2023-04-10T03:33:44.647Z,35.10
2023-04-10T03:36:11.523Z,36.07
2023-04-10T03:38:38.213Z,37.10
2023-04-10T03:41:05.103Z,37.77
2023-04-10T03:43:31.749Z,38.83
2023-04-10T03:45:58.732Z,38.90
2023-04-10T03:48:28.449Z,41.13
2023-04-10T03:50:55.726Z,40.50
2023-04-10T03:53:22.685Z,40.97
2023-04-10T03:55:49.268Z,41.27
2023-04-10T03:58:15.815Z,42.67
2023-04-10T04:00:42.558Z,43.40
2023-04-10T04:03:09.571Z,42.37
2023-04-10T04:05:36.319Z,45.93
2023-04-10T04:08:06.582Z,45.27
2023-04-10T04:10:33.532Z,46.70
2023-04-10T04:13:00.127Z,45.50
2023-04-10T04:15:26.861Z,47.60
2023-04-10T04:17:53.498Z,49.03
2023-04-10T04:20:20.254Z,47.47
2023-04-10T04:22:47.119Z,48.07
2023-04-10T04:25:13.728Z,48.53
2023-04-10T04:27:40.465Z,45.60
2023-04-10T04:30:07.852Z,45.30
2023-04-10T04:32:34.558Z,45.10
2023-04-10T04:35:01.183Z,45.27
2023-04-10T04:37:27.795Z,43.67
2023-04-10T04:39:54.666Z,43.30
2023-04-10T04:42:21.305Z,42.13
2023-04-10T04:44:49.445Z,41.43
2023-04-10T04:47:16.860Z,42.67
2023-04-10T04:49:43.599Z,40.50
2023-04-10T04:52:10.764Z,40.27
2023-04-10T04:54:37.346Z,40.13
2023-04-10T04:57:04.293Z,39.90
2023-04-10T04:59:30.946Z,38.57
2023-04-10T05:01:58.014Z,40.23
2023-04-10T05:04:25.138Z,38.73
2023-04-10T05:06:51.748Z,38.03
2023-04-10T05:09:18.387Z,36.57
2023-04-10T05:11:44.955Z,35.73
2023-04-10T05:14:11.681Z,33.47
2023-04-10T05:16:38.344Z,32.73
2023-04-10T05:19:04.889Z,33.93
2023-04-10T05:21:31.803Z,32.47
2023-04-10T05:23:58.388Z,29.93
2023-04-10T05:26:25.163Z,31.73
2023-04-10T05:28:51.917Z,29.50
2023-04-10T05:31:18.689Z,28.90
2023-04-10T05:33:45.342Z,28.77
2023-04-10T05:36:12.973Z,28.53
2023-04-10T05:38:39.565Z,28.93
2023-04-10T05:41:06.146Z,27.33
2023-04-10T05:43:32.667Z,27.93
2023-04-10T05:45:59.265Z,26.63
2023-04-10T05:48:26.238Z,25.93
2023-04-10T05:50:52.864Z,27.43
2023-04-10T05:53:21.062Z,26.70
2023-04-10T05:55:56.570Z,26.93
2023-04-10T05:58:23.277Z,26.27
2023-04-10T06:00:49.820Z,26.13
2023-04-10T06:03:16.432Z,27.23
2023-04-10T06:05:43.098Z,25.87
2023-04-10T06:08:09.706Z,25.87
2023-04-10T06:10:36.664Z,24.83
2023-04-10T06:13:04.452Z,25.27
2023-04-10T06:15:31.102Z,25.57
2023-04-10T06:17:57.707Z,24.90
2023-04-10T06:20:24.540Z,23.60
2023-04-10T06:22:53.904Z,24.03
2023-04-10T06:25:20.825Z,22.93
2023-04-10T06:27:47.359Z,23.65
2023-04-10T06:30:13.907Z,23.77
2023-04-10T06:32:42.033Z,23.13
2023-04-10T06:35:09.943Z,22.30
2023-04-10T06:37:37.414Z,23.15
2023-04-10T06:40:09.670Z,22.50
2023-04-10T06:42:36.847Z,21.45
2023-04-10T06:45:04.427Z,21.88
2023-04-10T06:47:32.089Z,21.05
2023-04-10T06:49:58.895Z,20.40
2023-04-10T06:52:25.733Z,21.83
2023-04-10T06:54:52.518Z,21.17
2023-04-10T06:57:19.088Z,20.60
2023-04-10T06:59:46.079Z,19.52
2023-04-10T07:02:12.743Z,19.20
2023-04-10T07:04:39.353Z,18.38
2023-04-10T07:07:09.942Z,17.95
2023-04-10T07:09:36.641Z,18.38
2023-04-10T07:12:03.373Z,17.08
2023-04-10T07:14:29.909Z,17.73
2023-04-10T07:16:56.531Z,17.40
2023-04-10T07:19:23.063Z,17.38
2023-04-10T07:21:50.215Z,16.92
2023-04-10T07:24:17.610Z,17.30
2023-04-10T07:26:44.979Z,16.95
2023-04-10T07:29:12.709Z,16.58
2023-04-10T07:31:40.562Z,16.80
2023-04-10T07:34:07.158Z,15.77
2023-04-10T07:36:39.569Z,16.88
2023-04-10T07:39:15.002Z,15.63
2023-04-10T07:41:41.730Z,15.32
2023-04-10T07:44:08.262Z,14.35
2023-04-10T07:46:34.940Z,14.43
2023-04-10T07:49:01.481Z,14.73
2023-04-10T07:51:28.958Z,13.90
2023-04-10T07:53:56.151Z,14.15
2023-04-10T07:56:23.345Z,13.85
2023-04-10T07:58:51.665Z,15.13
2023-04-10T08:01:18.653Z,13.77
2023-04-10T08:03:47.533Z,13.52
2023-04-10T08:06:14.494Z,13.50
2023-04-10T08:08:42.439Z,13.15
2023-04-10T08:11:26.275Z,12.27
2023-04-10T08:13:53.853Z,13.15
2023-04-10T08:16:31.033Z,13.05
2023-04-10T08:18:58.781Z,12.90
2023-04-10T08:21:27.666Z,13.18
2023-04-10T08:23:59.878Z,12.18
2023-04-10T08:26:27.591Z,11.18
2023-04-10T08:28:57.160Z,11.95
2023-04-10T08:31:25.066Z,11.13
2023-04-10T08:33:52.150Z,11.85
2023-04-10T08:36:20.310Z,11.80
2023-04-10T08:38:47.849Z,11.32
2023-04-10T08:41:16.430Z,10.88
2023-04-10T08:43:45.781Z,11.00
2023-04-10T08:46:14.380Z,11.05
2023-04-10T08:49:07.638Z,11.02
2023-04-10T08:51:50.318Z,11.45
2023-04-10T08:55:00.754Z,10.98
2023-04-10T08:57:28.194Z,10.40
2023-04-10T08:59:55.883Z,11.02
2023-04-10T09:02:40.871Z,11.32
2023-04-10T09:05:12.887Z,11.68
2023-04-10T09:07:39.963Z,11.25
2023-04-10T09:10:08.117Z,11.82
2023-04-10T09:12:46.118Z,11.05
2023-04-10T09:15:14.084Z,10.18
2023-04-10T09:18:01.759Z,11.13
2023-04-10T09:20:32.545Z,11.25
2023-04-10T09:22:59.292Z,10.65
2023-04-10T09:25:38.827Z,10.85
2023-04-10T09:28:09.807Z,11.02
2023-04-10T09:30:42.754Z,10.90
2023-04-10T09:33:24.378Z,11.15
2023-04-10T09:36:04.157Z,10.70
2023-04-10T09:38:31.254Z,10.27
2023-04-10T09:41:08.342Z,10.85
2023-04-10T09:43:35.166Z,10.68
2023-04-10T09:46:01.902Z,10.50
2023-04-10T09:48:29.259Z,10.93
2023-04-10T09:50:56.717Z,10.00
2023-04-10T09:53:23.659Z,10.07
2023-04-10T09:55:50.911Z,9.32
2023-04-10T09:58:22.359Z,9.05
2023-04-10T10:00:49.696Z,9.48
2023-04-10T10:03:19.107Z,8.52
2023-04-10T10:05:49.031Z,8.02
2023-04-10T10:08:16.806Z,8.60
2023-04-10T10:10:49.883Z,8.73
2023-04-10T10:13:40.892Z,8.57
2023-04-10T10:16:23.944Z,8.38
2023-04-10T10:19:09.709Z,9.27
2023-04-10T10:21:40.033Z,7.95
2023-04-10T10:24:09.361Z,6.70
2023-04-10T10:26:43.240Z,6.72
2023-04-10T10:29:14.207Z,6.97
2023-04-10T10:31:42.595Z,6.25
2023-04-10T10:34:09.801Z,6.53
2023-04-10T10:36:37.422Z,6.28
2023-04-10T10:39:13.120Z,6.32
2023-04-10T10:41:47.230Z,6.60
2023-04-10T10:44:29.854Z,7.15
2023-04-10T10:47:04.599Z,6.10
2023-04-10T10:50:00.312Z,6.70
2023-04-10T10:52:57.740Z,6.13
2023-04-10T10:55:24.784Z,6.05
2023-04-10T10:57:53.525Z,5.68
2023-04-10T11:00:25.876Z,5.93
2023-04-10T11:03:08.707Z,5.65
2023-04-10T11:05:52.470Z,6.18
2023-04-10T11:08:48.661Z,6.20
2023-04-10T11:11:25.244Z,6.95
2023-04-10T11:13:57.991Z,5.72
2023-04-10T11:16:31.650Z,6.40
2023-04-10T11:19:13.907Z,6.63
2023-04-10T11:22:06.251Z,6.95
2023-04-10T11:24:52.914Z,6.55
2023-04-10T11:27:48.514Z,6.40
2023-04-10T11:30:29.879Z,6.25
2023-04-10T11:32:57.708Z,6.38
2023-04-10T11:35:25.845Z,6.28
2023-04-10T11:37:56.148Z,5.43
2023-04-10T11:40:22.959Z,5.32
2023-04-10T11:42:50.410Z,5.60
2023-04-10T11:45:24.167Z,6.00
2023-04-10T11:47:52.351Z,6.00
2023-04-10T11:50:20.950Z,5.93
2023-04-10T11:52:53.969Z,6.60
2023-04-10T11:55:35.553Z,5.75
2023-04-10T11:58:02.088Z,5.60
2023-04-10T12:00:28.632Z,5.72
2023-04-10T12:02:55.498Z,6.20
2023-04-10T12:05:22.360Z,5.78
2023-04-10T12:07:50.201Z,6.07
2023-04-10T12:10:16.861Z,5.60
2023-04-10T12:12:43.598Z,5.32
2023-04-10T12:15:27.375Z,5.68
2023-04-10T12:17:54.919Z,5.32
2023-04-10T12:20:26.495Z,5.57
2023-04-10T12:22:56.364Z,5.80
2023-04-10T12:25:23.117Z,6.00
2023-04-10T12:27:52.989Z,5.32
2023-04-10T12:30:19.587Z,4.90
2023-04-10T12:32:54.812Z,5.28
2023-04-10T12:35:37.051Z,5.03
2023-04-10T12:38:03.617Z,5.20
2023-04-10T12:40:30.610Z,4.80
2023-04-10T12:42:57.704Z,5.07
2023-04-10T12:45:44.356Z,4.75
2023-04-10T12:48:11.115Z,4.63
2023-04-10T12:50:47.838Z,4.72
2023-04-10T12:53:15.220Z,4.75
2023-04-10T12:55:42.994Z,4.47
2023-04-10T12:58:21.514Z,4.70
2023-04-10T13:00:49.053Z,4.53
2023-04-10T13:03:16.284Z,4.57
2023-04-10T13:05:43.176Z,4.07
2023-04-10T13:08:10.185Z,4.22
2023-04-10T13:10:38.153Z,4.55
2023-04-10T13:13:06.845Z,5.22
2023-04-10T13:15:36.677Z,4.65
2023-04-10T13:18:05.791Z,4.05
2023-04-10T13:20:36.883Z,4.60
2023-04-10T13:23:03.963Z,4.75
2023-04-10T13:25:33.317Z,4.00
2023-04-10T13:28:03.340Z,4.00
2023-04-10T13:30:30.022Z,4.25
2023-04-10T13:32:56.712Z,3.80
2023-04-10T13:35:23.400Z,4.00
2023-04-10T13:37:53.051Z,3.60
2023-04-10T13:40:21.210Z,3.58
2023-04-10T13:42:48.535Z,3.67
2023-04-10T13:45:15.826Z,3.65
2023-04-10T13:47:43.378Z,3.78
2023-04-10T13:50:10.576Z,3.58
2023-04-10T13:52:37.301Z,3.80
2023-04-10T13:55:04.465Z,3.42
2023-04-10T13:57:31.218Z,4.15
2023-04-10T13:59:58.034Z,3.33
2023-04-10T14:02:24.688Z,3.63
2023-04-10T14:04:51.549Z,3.30
2023-04-10T14:07:19.968Z,3.25
2023-04-10T14:09:47.128Z,3.05
2023-04-10T14:12:16.552Z,3.38
2023-04-10T14:14:44.459Z,3.45
2023-04-10T14:17:11.424Z,3.85
2023-04-10T14:19:41.784Z,3.15
2023-04-10T14:22:09.178Z,3.63
2023-04-10T14:24:35.692Z,7.07
2023-04-10T14:27:02.325Z,3.50
2023-04-10T14:31:59.381Z,3.65
2023-04-10T14:34:26.106Z,3.40
2023-04-10T14:36:55.805Z,3.20
2023-04-10T14:39:24.459Z,3.00
2023-04-10T14:41:51.501Z,3.03
2023-04-10T14:44:18.352Z,2.88
2023-04-10T14:46:45.835Z,3.55
2023-04-10T14:49:14.506Z,5.38
2023-04-10T14:51:43.687Z,3.47
2023-04-10T14:54:10.968Z,2.83
2023-04-10T14:56:37.769Z,2.88
2023-04-10T14:59:04.623Z,2.88
2023-04-10T15:01:31.363Z,3.60
2023-04-10T15:03:58.226Z,3.58
2023-04-10T15:06:27.390Z,3.28
2023-04-10T15:08:56.615Z,2.60
2023-04-10T15:11:23.613Z,3.03
2023-04-10T15:13:50.416Z,3.25
2023-04-10T15:16:17.580Z,3.30
2023-04-10T15:18:47.816Z,3.25
2023-04-10T15:21:15.011Z,3.40
2023-04-10T15:23:41.644Z,3.45
2023-04-10T15:26:13.359Z,3.22
2023-04-10T15:28:41.078Z,3.50
2023-04-10T15:31:07.769Z,4.93
2023-04-10T15:33:36.388Z,6.30
2023-04-10T15:36:04.280Z,8.35
2023-04-10T15:38:32.927Z,4.53
2023-04-10T15:40:59.575Z,16.50
2023-04-10T15:43:26.307Z,7.45
2023-04-10T15:45:53.212Z,3.97
2023-04-10T15:48:22.658Z,8.55
2023-04-10T15:50:49.392Z,4.78
2023-04-10T15:53:16.147Z,4.88
2023-04-10T15:55:42.891Z,4.40
2023-04-10T15:58:09.770Z,4.30
2023-04-10T16:00:36.502Z,3.67
2023-04-10T16:03:03.761Z,3.30
2023-04-10T16:05:30.984Z,3.40
2023-04-10T16:07:59.160Z,3.17
2023-04-10T16:10:26.100Z,2.97
2023-04-10T16:12:52.941Z,3.10
2023-04-10T16:15:19.859Z,3.10
2023-04-10T16:17:46.782Z,3.42
2023-04-10T16:20:14.312Z,2.90
2023-04-10T16:22:41.031Z,2.72
2023-04-10T16:25:09.010Z,2.90
2023-04-10T16:27:35.770Z,3.08
2023-04-10T16:30:02.567Z,3.20
2023-04-10T16:32:31.530Z,2.70
2023-04-10T16:34:58.783Z,3.20
2023-04-10T16:37:25.441Z,2.90
2023-04-10T16:39:52.172Z,2.83
2023-04-10T16:42:18.755Z,2.83
2023-04-10T16:44:45.501Z,2.80
2023-04-10T16:47:12.197Z,3.35
2023-04-10T16:49:40.286Z,3.80
2023-04-10T16:52:06.938Z,2.95
2023-04-10T16:54:33.725Z,3.42
2023-04-10T16:57:01.350Z,2.90
2023-04-10T16:59:28.011Z,2.63
2023-04-10T17:01:54.751Z,2.72
2023-04-10T17:04:21.536Z,4.57
2023-04-10T17:06:48.453Z,2.42
2023-04-10T17:09:18.541Z,2.17
2023-04-10T17:11:45.395Z,2.47
2023-04-10T17:14:13.360Z,2.35
2023-04-10T17:16:41.984Z,2.13
2023-04-10T17:19:10.014Z,2.53
2023-04-10T17:22:19.352Z,2.50
2023-04-10T17:24:46.327Z,2.33
2023-04-10T17:27:16.604Z,2.40
2023-04-10T17:29:43.320Z,2.88
2023-04-10T17:32:10.386Z,2.42
2023-04-10T17:34:37.112Z,2.80
2023-04-10T17:37:04.129Z,2.45
2023-04-10T17:39:31.377Z,2.40
2023-04-10T17:41:58.281Z,1.80
2023-04-10T17:44:24.882Z,3.00
2023-04-10T17:46:53.876Z,1.67
2023-04-10T17:49:22.316Z,2.58
2023-04-10T17:51:49.838Z,1.88
2023-04-10T17:54:16.560Z,1.80
2023-04-10T17:56:43.183Z,2.17
2023-04-10T17:59:10.335Z,2.10
2023-04-10T18:01:37.801Z,1.98
2023-04-10T18:04:05.585Z,1.80
2023-04-10T18:06:33.151Z,1.70
2023-04-10T18:09:00.165Z,1.80
2023-04-10T18:11:27.525Z,1.45
2023-04-10T18:13:54.998Z,1.25
2023-04-10T18:16:21.952Z,1.25
2023-04-10T18:18:48.879Z,1.50
2023-04-10T18:21:15.963Z,1.67
2023-04-10T18:23:44.797Z,1.20
2023-04-10T18:26:12.179Z,1.90
2023-04-10T18:28:39.524Z,1.60
2023-04-10T18:31:06.338Z,1.52
2023-04-10T18:33:33.497Z,1.58
2023-04-10T18:36:00.498Z,1.50
2023-04-10T18:38:29.744Z,1.50
2023-04-10T18:40:59.206Z,1.65
2023-04-10T18:43:30.191Z,2.08
2023-04-10T18:45:58.515Z,1.95
2023-04-10T18:48:27.184Z,1.55
2023-04-10T18:50:54.220Z,2.03
2023-04-10T18:53:22.406Z,1.60
2023-04-10T18:55:53.424Z,1.85
2023-04-10T18:58:23.908Z,1.90
2023-04-10T19:00:51.005Z,1.90
2023-04-10T19:03:18.391Z,1.83
2023-04-10T19:05:45.509Z,2.25
2023-04-10T19:08:15.927Z,1.77
2023-04-10T19:10:43.297Z,2.20
2023-04-10T19:13:12.046Z,1.80
2023-04-10T19:15:44.978Z,2.20
2023-04-10T19:18:13.944Z,2.08
2023-04-10T19:20:50.870Z,1.90
2023-04-10T19:23:19.510Z,2.47
2023-04-10T19:25:46.556Z,2.38
2023-04-10T19:28:13.496Z,2.03
2023-04-10T19:30:40.445Z,2.22
2023-04-10T19:33:07.496Z,2.28
2023-04-10T19:35:34.478Z,2.58
2023-04-10T19:38:01.593Z,2.10
2023-04-10T19:40:31.425Z,1.60
2023-04-10T19:42:59.987Z,1.73
2023-04-10T19:45:29.593Z,1.58
2023-04-10T19:47:57.719Z,2.17
2023-04-10T19:50:27.270Z,2.80
2023-04-10T19:52:54.026Z,2.47
2023-04-10T19:55:21.566Z,2.40
2023-04-10T19:57:49.465Z,2.92
2023-04-10T20:00:16.900Z,2.80
2023-04-10T20:02:44.054Z,2.63
2023-04-10T20:05:14.075Z,2.65
2023-04-10T20:07:41.308Z,2.30
2023-04-10T20:10:11.345Z,2.33
2023-04-10T20:12:38.161Z,2.55
2023-04-10T20:15:05.927Z,2.80
2023-04-10T20:17:32.812Z,2.78
2023-04-10T20:19:59.946Z,3.20
2023-04-10T20:22:27.079Z,3.20
2023-04-10T20:24:54.034Z,4.25
2023-04-10T20:27:20.959Z,4.25
2023-04-10T20:29:48.115Z,4.68
2023-04-10T20:32:15.001Z,4.82
2023-04-10T20:34:41.806Z,5.45
2023-04-10T20:37:08.766Z,5.40
2023-04-10T20:39:37.782Z,5.82
2023-04-10T20:42:06.118Z,6.75
2023-04-10T20:44:37.062Z,9.00
2023-04-10T20:47:05.825Z,6.28
2023-04-10T20:49:40.071Z,7.72
2023-04-10T20:52:07.314Z,8.02
2023-04-10T20:54:36.824Z,5.97
2023-04-10T20:57:05.917Z,6.28
2023-04-10T20:59:33.675Z,5.03
2023-04-10T21:02:00.669Z,6.15
2023-04-10T21:04:27.872Z,5.75
2023-04-10T21:06:54.937Z,3.42
2023-04-10T21:09:21.984Z,3.40
2023-04-10T21:11:58.349Z,3.35
2023-04-10T21:14:25.180Z,4.20
2023-04-10T21:16:52.178Z,3.70
2023-04-10T21:19:19.012Z,3.50
2023-04-10T21:21:46.224Z,3.58
2023-04-10T21:24:13.283Z,3.80
2023-04-10T21:26:40.312Z,3.42
2023-04-10T21:29:07.156Z,4.18
2023-04-10T21:31:34.010Z,4.40
2023-04-10T21:34:00.847Z,4.15
2023-04-10T21:36:27.789Z,4.22
2023-04-10T21:38:54.687Z,3.92
2023-04-10T21:41:27.215Z,3.58
2023-04-10T21:43:56.546Z,4.03
2023-04-10T21:46:23.592Z,3.72
2023-04-10T21:48:50.941Z,4.43
2023-04-10T21:51:21.148Z,4.25
2023-04-10T21:53:48.091Z,3.70
2023-04-10T21:56:14.918Z,4.43
2023-04-10T21:58:41.862Z,4.03
2023-04-10T22:01:08.955Z,4.20
2023-04-10T22:03:35.836Z,4.47
2023-04-10T22:06:02.901Z,3.85
2023-04-10T22:08:29.876Z,4.85
2023-04-10T22:10:59.771Z,4.32
2023-04-10T22:13:30.723Z,4.80
2023-04-10T22:16:02.327Z,4.82
2023-04-10T22:18:31.051Z,4.80
2023-04-10T22:20:57.785Z,4.50
2023-04-10T22:23:24.646Z,5.82
2023-04-10T22:25:51.577Z,5.47
2023-04-10T22:28:18.516Z,4.40
2023-04-10T22:30:45.503Z,3.67
2023-04-10T22:33:12.519Z,3.80
2023-04-10T22:35:39.176Z,4.22
2023-04-10T22:38:08.046Z,3.90
2023-04-10T22:40:34.929Z,4.22
2023-04-10T22:43:01.940Z,3.80
2023-04-10T22:45:28.778Z,3.78
2023-04-10T22:47:58.342Z,4.15
2023-04-10T22:50:25.333Z,3.58
2023-04-10T22:52:52.177Z,3.90
2023-04-10T22:55:19.016Z,4.32
2023-04-10T22:57:49.373Z,5.00
2023-04-10T23:00:16.697Z,4.10
2023-04-10T23:02:43.561Z,3.97
2023-04-10T23:05:10.591Z,4.72
2023-04-10T23:07:37.324Z,3.80
2023-04-10T23:10:04.599Z,3.92
2023-04-10T23:12:31.637Z,3.78
2023-04-10T23:14:58.681Z,3.80
2023-04-10T23:17:25.834Z,3.85
2023-04-10T23:19:52.986Z,3.58
2023-04-10T23:22:20.241Z,3.60
2023-04-10T23:24:48.061Z,4.07
2023-04-10T23:27:15.470Z,3.53
2023-04-10T23:29:42.724Z,3.40
2023-04-10T23:32:09.689Z,3.67
2023-04-10T23:34:36.705Z,3.40
2023-04-10T23:37:03.864Z,3.30
2023-04-10T23:39:31.231Z,2.90
2023-04-10T23:41:58.470Z,3.30
2023-04-10T23:44:25.772Z,3.28
2023-04-10T23:46:53.035Z,3.47
2023-04-10T23:49:20.370Z,3.25
2023-04-10T23:51:47.581Z,2.90
2023-04-10T23:54:14.724Z,3.05
2023-04-10T23:56:41.978Z,2.70
2023-04-10T23:59:09.537Z,2.80
